Beauregard Regional Airport
KDRI : now visible

Airfield :











YOU CAN JOIN US ON...

 
LOGIN :

Register | Disclaimer

   EN    FR    IT 

 









Legend :    VFR   Marginal VFR   IFR   Intensive IFR   Very Intensive IFR
Visi :
Ceiling :
>= 8 km
>= 3000ft
5 to 8 km
1000 to 3000 ft
1500m to 5 km
500 to 1000 ft
800 to 1500m
200 to 500 ft
< 800m
< 200 ft
Symbols :   Thunderstorms  Fog  Heavy snow  Heavy precipitations  Wind > 20 kt






- Airport Elevation : 202 ft


KDRI - Beauregard Regional

CURRENT METAR :
  • 200835Z AUTO 20004KT 10SM SCT004 BKN037 OVC100 23/22 A2981 RMK AO2 T02310223

EXPIRED METARs :
  • 200815Z AUTO 19005KT 10SM SCT006 BKN044 OVC090 23/22 A2981 RMK AO2 T02310224
  • 200755Z AUTO 19003KT 10SM SCT006 BKN042 OVC090 23/23 A2981 RMK AO2 T02320225
  • 200735Z AUTO 19003KT 10SM SCT006 BKN037 OVC045 23/22 A2981 RMK AO2 T02310223
  • 200715Z AUTO 18003KT 10SM SCT006 OVC037 23/22 A2981 RMK AO2 T02280220
  • 200655Z AUTO 16003KT 10SM SCT006 BKN037 23/22 A2981 RMK AO2 T02280220
  • 200635Z AUTO 16004KT 10SM SCT035 23/22 A2981 RMK AO2 T02300221
  • 200615Z AUTO 17004KT 10SM SCT030 23/22 A2981 RMK AO2 T02300222
  • 200555Z AUTO 18006KT 10SM BKN030 23/22 A2981 RMK AO2 T02310223 10251 20228 402890122

TAF N/A



MET'MAP, your aeronautical weather chart ! - Copyright ORBIFLY December 2007 - Disclaimer

ORBIFLY MET'MAP TEAM :

Programming & Development : Alexandra Zaïnal
Concept & Development : Baudouin d'Aumeries
Co-Development & Prog : Marc-Olivier Méhu
Technical & hardware support : Manuel Goepfert

Contact : metmap@orbifly.com




SOURCES & CREDITS :

   NOAA       Earth
Advisory